Time;durP1;ratioP1;P1;durP2;ratioP2;P2;SDS_P1;SDS_P2;PMS_P1;PMS_P2;Temp;Humidity;BMP_temperature;BMP_pressure;BME280_temperature;BME280_humidity;BME280_pressure;Samples;Min_cycle;Max_cycle;Signal;HPM_P1;HPM_P2
2024/01/12 00:00:56;;;;;;;41.10;22.45;;;;;;;-5.36;71.65;99875.84;4937277;27;102819;-74
2024/01/12 00:03:24;;;;;;;47.22;24.83;;;;;;;-5.38;71.53;99884.50;4932441;28;102743;-66
2024/01/12 00:05:52;;;;;;;40.65;22.10;;;;;;;-5.52;72.38;99870.19;4937090;28;103859;-65
2024/01/12 00:08:20;;;;;;;46.08;23.40;;;;;;;-5.46;72.33;99881.25;4943081;28;104295;-66
2024/01/12 00:10:49;;;;;;;39.38;23.13;;;;;;;-5.48;72.41;99886.44;4940069;28;103217;-74
2024/01/12 00:13:17;;;;;;;44.03;23.42;;;;;;;-5.45;72.33;99885.53;4934338;28;102738;-74
2024/01/12 00:15:45;;;;;;;38.63;20.08;;;;;;;-5.39;72.29;99882.81;4931257;28;104499;-74
2024/01/12 00:18:14;;;;;;;40.50;21.23;;;;;;;-5.37;71.73;99881.00;4935909;28;104272;-74
2024/01/12 00:20:43;;;;;;;38.90;19.27;;;;;;;-5.33;71.87;99885.25;4935487;28;103207;-74
2024/01/12 00:23:12;;;;;;;39.08;20.35;;;;;;;-5.30;71.52;99884.31;4943740;27;103816;-73
2024/01/12 00:25:40;;;;;;;38.13;23.25;;;;;;;-5.45;71.37;99876.06;4935488;28;102726;-74
2024/01/12 00:28:09;;;;;;;38.97;20.83;;;;;;;-5.42;71.95;99878.56;4939017;28;103324;-74
2024/01/12 00:30:45;;;;;;;41.45;23.45;;;;;;;-5.40;71.07;99881.09;4936253;28;104317;-74
2024/01/12 00:33:13;;;;;;;42.72;22.73;;;;;;;-5.45;71.18;99875.19;4937733;28;102618;-74
2024/01/12 00:35:41;;;;;;;51.80;24.83;;;;;;;-5.51;71.09;99884.78;4929895;28;104015;-74
2024/01/12 00:38:09;;;;;;;39.58;21.55;;;;;;;-5.62;71.10;99886.81;4938378;28;104021;-74
2024/01/12 00:40:37;;;;;;;42.15;22.05;;;;;;;-5.90;72.89;99884.84;4941373;28;104848;-73
2024/01/12 00:43:06;;;;;;;42.40;22.23;;;;;;;-5.92;72.96;99896.94;4937538;28;102923;-73
2024/01/12 00:45:38;;;;;;;40.60;22.85;;;;;;;-5.81;73.39;99893.28;4934700;28;103850;-73
2024/01/12 00:48:07;;;;;;;39.97;22.08;;;;;;;-5.71;73.60;99889.56;4934033;28;104170;-73
2024/01/12 00:50:36;;;;;;;41.42;23.02;;;;;;;-5.69;72.49;99887.81;4940859;28;103366;-73
2024/01/12 00:53:04;;;;;;;41.92;23.20;;;;;;;-5.62;72.67;99889.38;4940063;28;102571;-73
2024/01/12 00:55:33;;;;;;;51.08;23.60;;;;;;;-5.73;72.27;99886.19;4941046;28;103948;-73
2024/01/12 00:58:01;;;;;;;33.63;19.17;;;;;;;-5.75;72.83;99888.81;4939865;28;103165;-72
2024/01/12 01:00:30;;;;;;;46.42;22.30;;;;;;;-5.77;72.48;99895.75;4936318;28;102982;-72
2024/01/12 01:03:01;;;;;;;40.80;23.20;;;;;;;-5.79;73.11;99896.66;4939803;28;102612;-73
2024/01/12 01:05:30;;;;;;;40.38;23.23;;;;;;;-5.80;72.67;99897.53;4937391;28;104127;-65
2024/01/12 01:07:58;;;;;;;39.20;21.80;;;;;;;-5.81;72.57;99901.03;4937756;28;103849;-65
2024/01/12 01:10:26;;;;;;;45.40;21.75;;;;;;;-5.86;72.50;99906.28;4936754;28;103155;-65
2024/01/12 01:12:54;;;;;;;41.85;22.40;;;;;;;-5.80;72.64;99905.28;4934822;28;102564;-64
2024/01/12 01:15:22;;;;;;;32.45;17.50;;;;;;;-5.78;72.68;99906.94;4935882;28;103752;-65
2024/01/12 01:17:50;;;;;;;37.47;19.40;;;;;;;-5.69;72.34;99898.16;4939732;28;104373;-66
2024/01/12 01:20:19;;;;;;;43.20;20.70;;;;;;;-5.71;71.71;99899.91;4937163;28;103280;-65
2024/01/12 01:22:47;;;;;;;44.95;23.58;;;;;;;-5.77;71.62;99903.47;4942844;28;102931;-73
2024/01/12 01:25:15;;;;;;;39.78;21.92;;;;;;;-5.77;71.95;99908.66;4937294;27;103852;-66
2024/01/12 01:27:43;;;;;;;41.63;22.33;;;;;;;-5.77;72.04;99912.97;4934506;28;104306;-65
2024/01/12 01:30:14;;;;;;;41.97;23.08;;;;;;;-5.80;72.08;99910.44;4933176;28;104142;-65
2024/01/12 01:32:42;;;;;;;42.17;22.08;;;;;;;-5.80;72.01;99916.47;4933125;28;102569;-65
2024/01/12 01:35:10;;;;;;;39.72;20.02;;;;;;;-5.79;71.98;99922.47;4936600;28;102901;-66
2024/01/12 01:37:39;;;;;;;39.35;19.33;;;;;;;-5.84;71.65;99913.09;4936511;28;104186;-65
2024/01/12 01:40:08;;;;;;;38.83;20.17;;;;;;;-5.84;71.63;99922.59;4934778;28;103085;-67
2024/01/12 01:42:36;;;;;;;40.75;20.63;;;;;;;-5.88;71.86;99920.94;4931706;28;102818;-73
2024/01/12 01:45:05;;;;;;;45.28;21.48;;;;;;;-5.83;71.99;99919.09;4938622;28;103883;-73
2024/01/12 01:47:33;;;;;;;37.50;21.50;;;;;;;-5.91;72.01;99914.09;4943266;28;103789;-74
2024/01/12 01:50:01;;;;;;;36.20;18.95;;;;;;;-5.87;72.51;99918.34;4939734;28;104516;-73
2024/01/12 01:52:30;;;;;;;35.50;19.95;;;;;;;-5.82;71.81;99918.22;4940852;28;102564;-73
2024/01/12 01:54:59;;;;;;;34.17;15.55;;;;;;;-5.83;71.82;99912.22;4942689;28;102745;-73
2024/01/12 01:57:28;;;;;;;31.23;15.95;;;;;;;-5.77;71.56;99915.56;4940120;28;104500;-72
2024/01/12 01:59:56;;;;;;;24.13;15.02;;;;;;;-5.79;71.44;99917.31;4938774;28;103257;-65
2024/01/12 02:02:25;;;;;;;36.42;19.35;;;;;;;-5.79;71.17;99912.16;4940790;28;102629;-65
2024/01/12 02:04:54;;;;;;;41.58;22.55;;;;;;;-5.91;70.86;99908.94;4937085;28;103758;-75
2024/01/12 02:07:22;;;;;;;33.53;19.73;;;;;;;-5.94;71.74;99914.19;4941925;28;104248;-74
2024/01/12 02:09:50;;;;;;;33.88;16.63;;;;;;;-5.91;71.85;99910.69;4936879;28;102779;-65
2024/01/12 02:12:20;;;;;;;44.42;21.83;;;;;;;-5.91;71.55;99918.44;4940565;28;102885;-65
2024/01/12 02:14:50;;;;;;;37.90;19.80;;;;;;;-5.97;71.85;99914.25;4939214;28;104281;-66
2024/01/12 02:17:18;;;;;;;42.67;20.95;;;;;;;-6.00;71.49;99910.06;4935100;28;103973;-65
2024/01/12 02:19:46;;;;;;;33.28;20.63;;;;;;;-6.13;71.76;99916.38;4935110;28;103263;-65
2024/01/12 02:22:16;;;;;;;36.65;20.75;;;;;;;-6.14;72.75;99921.53;4941570;28;102628;-65
2024/01/12 02:24:44;;;;;;;40.47;19.13;;;;;;;-6.11;72.82;99913.75;4945554;27;103962;-65
2024/01/12 02:27:12;;;;;;;36.15;19.30;;;;;;;-6.02;73.43;99905.81;4939572;28;104103;-73
2024/01/12 02:29:40;;;;;;;28.20;15.55;;;;;;;-5.96;72.47;99908.22;4939540;28;103260;-65
2024/01/12 02:32:08;;;;;;;35.58;19.20;;;;;;;-5.94;72.43;99906.44;4942456;28;102613;-73
2024/01/12 02:34:35;;;;;;;35.67;19.77;;;;;;;-5.97;72.39;99898.78;4933964;28;104399;-73
2024/01/12 02:37:04;;;;;;;36.83;20.63;;;;;;;-5.98;71.99;99894.53;4939709;28;104088;-74
2024/01/12 02:39:33;;;;;;;32.80;17.30;;;;;;;-6.04;71.98;99892.94;4942601;28;103398;-73
2024/01/12 02:42:01;;;;;;;31.02;17.02;;;;;;;-5.99;72.07;99895.41;4938909;28;102715;-74
2024/01/12 02:44:29;;;;;;;36.70;20.17;;;;;;;-5.98;71.98;99891.94;4937462;28;104112;-73
2024/01/12 02:46:57;;;;;;;43.28;21.55;;;;;;;-6.03;71.49;99893.78;4942070;28;104075;-74
2024/01/12 02:49:25;;;;;;;36.95;20.77;;;;;;;-6.01;72.15;99895.44;4940296;28;103194;-73
2024/01/12 02:51:53;;;;;;;38.15;21.17;;;;;;;-6.08;71.42;99888.72;4941482;28;103698;-73
2024/01/12 02:54:21;;;;;;;35.60;22.50;;;;;;;-6.17;71.52;99887.22;4939205;28;102780;-74
2024/01/12 02:56:51;;;;;;;40.40;20.92;;;;;;;-6.17;72.24;99882.06;4934139;28;104120;-74
2024/01/12 02:59:19;;;;;;;41.80;22.52;;;;;;;-6.11;72.37;99881.06;4939906;28;103248;-73
2024/01/12 03:01:47;;;;;;;36.85;21.40;;;;;;;-6.19;71.98;99882.97;4935526;27;102639;-73
2024/01/12 03:04:15;;;;;;;41.72;20.98;;;;;;;-6.23;72.21;99878.75;4939201;28;104031;-73
2024/01/12 03:06:43;;;;;;;32.72;18.95;;;;;;;-6.32;72.69;99887.53;4940255;28;104159;-74
2024/01/12 03:09:11;;;;;;;43.60;22.27;;;;;;;-6.34;72.66;99889.28;4935783;28;103405;-73
2024/01/12 03:11:39;;;;;;;41.58;20.00;;;;;;;-6.33;72.79;99885.81;4939305;28;102845;-74
2024/01/12 03:14:09;;;;;;;35.42;20.50;;;;;;;-6.34;72.64;99885.00;4937560;28;104298;-75
2024/01/12 03:16:37;;;;;;;42.25;23.05;;;;;;;-6.30;72.74;99878.03;4940083;28;104477;-74
2024/01/12 03:19:05;;;;;;;47.88;22.30;;;;;;;-6.26;72.78;99877.09;4936416;28;103259;-65
2024/01/12 03:21:34;;;;;;;37.15;20.88;;;;;;;-6.21;72.51;99880.41;4931652;28;102828;-65
2024/01/12 03:24:02;;;;;;;36.05;20.13;;;;;;;-6.18;72.51;99880.34;4929803;28;104048;-74
2024/01/12 03:26:30;;;;;;;42.63;20.45;;;;;;;-6.25;71.41;99883.09;4940974;28;104184;-73
2024/01/12 03:28:58;;;;;;;37.90;21.08;;;;;;;-6.30;72.37;99880.63;4937917;28;103282;-74
2024/01/12 03:31:29;;;;;;;42.63;19.42;;;;;;;-6.44;72.20;99890.38;4942566;28;102975;-73
2024/01/12 03:33:57;;;;;;;39.42;20.48;;;;;;;-6.41;72.63;99892.88;4942559;28;103371;-74
2024/01/12 03:36:27;;;;;;;37.58;20.35;;;;;;;-6.42;72.80;99891.19;4935489;28;104183;-74
2024/01/12 03:38:56;;;;;;;38.83;21.23;;;;;;;-6.47;72.46;99890.41;4936511;28;103201;-74
2024/01/12 03:41:24;;;;;;;36.55;19.05;;;;;;;-6.51;73.28;99892.19;4941498;28;102631;-73
2024/01/12 03:43:52;;;;;;;37.10;19.02;;;;;;;-6.54;73.14;99892.28;4942503;27;103864;-74
2024/01/12 03:46:22;;;;;;;35.60;17.88;;;;;;;-6.50;73.88;99907.66;4936222;28;104089;-74
2024/01/12 03:48:52;;;;;;;30.52;17.40;;;;;;;-6.43;73.82;99904.94;4939863;28;103315;-74
2024/01/12 03:51:20;;;;;;;38.70;19.83;;;;;;;-6.36;73.63;99897.06;4937520;27;102741;-73
2024/01/12 03:53:48;;;;;;;37.20;19.45;;;;;;;-6.29;73.47;99892.59;4955429;27;103775;-66
2024/01/12 03:56:16;;;;;;;35.33;19.05;;;;;;;-6.28;72.58;99894.31;4935996;28;104020;-65
2024/01/12 03:58:44;;;;;;;37.95;20.50;;;;;;;-6.35;70.66;99903.06;4944985;27;104223;-65
2024/01/12 04:01:12;;;;;;;41.65;20.95;;;;;;;-6.65;71.38;99895.06;4914519;28;102780;-66
2024/01/12 04:03:41;;;;;;;43.67;21.08;;;;;;;-6.65;72.89;99897.66;4926365;28;104481;-65
2024/01/12 04:06:11;;;;;;;39.08;19.60;;;;;;;-6.57;72.97;99898.34;4927164;28;104176;-65
2024/01/12 04:08:41;;;;;;;36.42;19.35;;;;;;;-6.56;72.20;99894.91;4924415;28;104657;-66
2024/01/12 04:11:10;;;;;;;30.83;17.58;;;;;;;-6.65;72.26;99902.81;4922781;27;103150;-73
2024/01/12 04:13:38;;;;;;;31.17;16.63;;;;;;;-6.66;72.15;99891.63;4930414;28;102742;-67
2024/01/12 04:16:08;;;;;;;43.40;20.33;;;;;;;-6.62;71.87;99892.44;4918501;27;103325;-66
2024/01/12 04:18:36;;;;;;;41.13;20.08;;;;;;;-6.76;72.28;99881.53;4933104;28;103016;-73
2024/01/12 04:21:26;;;;;;;38.92;20.30;;;;;;;-6.71;72.70;99895.19;4929738;28;102738;-65
2024/01/12 04:24:05;;;;;;;38.90;20.25;;;;;;;-6.85;71.66;99892.88;4926837;28;103970;-72
2024/01/12 04:26:58;;;;;;;38.50;21.00;;;;;;;-6.83;71.84;99897.09;4933131;28;104391;-73
2024/01/12 04:30:02;;;;;;;33.85;19.98;;;;;;;-6.90;72.10;99890.38;4928137;28;103041;-73
2024/01/12 04:32:30;;;;;;;37.33;19.80;;;;;;;-6.90;72.38;99897.28;4927492;28;102624;-73
2024/01/12 04:34:59;;;;;;;58.83;28.23;;;;;;;-6.91;72.61;99900.72;4926662;28;103968;-73
2024/01/12 04:37:28;;;;;;;54.17;26.77;;;;;;;-7.05;73.53;99900.97;4932032;27;103302;-75
2024/01/12 04:39:58;;;;;;;52.83;26.73;;;;;;;-7.08;74.36;99895.88;4933825;28;103245;-73
2024/01/12 04:42:26;;;;;;;74.80;39.70;;;;;;;-6.99;74.00;99895.72;4928791;28;103155;-74
2024/01/12 04:44:54;;;;;;;67.15;38.85;;;;;;;-6.92;74.70;99902.44;4929110;28;103861;-73
2024/01/12 04:47:22;;;;;;;58.13;34.83;;;;;;;-6.79;74.73;99897.06;4927965;28;103297;-74
2024/01/12 04:49:50;;;;;;;52.03;25.90;;;;;;;-6.79;73.96;99904.81;4923685;28;103195;-74
2024/01/12 04:52:18;;;;;;;49.85;26.40;;;;;;;-6.83;73.23;99917.72;4926254;28;103419;-72
2024/01/12 04:54:48;;;;;;;43.25;21.80;;;;;;;-6.79;73.93;99917.69;4922306;28;102740;-68
2024/01/12 04:57:16;;;;;;;35.13;19.15;;;;;;;-6.71;73.60;99920.97;4918931;28;104304;-69
2024/01/12 04:59:44;;;;;;;32.67;17.63;;;;;;;-6.68;73.32;99920.88;4935689;27;103469;-68
2024/01/12 05:02:12;;;;;;;43.55;25.00;;;;;;;-6.75;72.42;99919.31;4928897;28;102662;-68
2024/01/12 05:04:40;;;;;;;47.65;23.70;;;;;;;-6.92;72.75;99925.63;4922503;28;102566;-68
2024/01/12 05:07:09;;;;;;;40.53;22.25;;;;;;;-6.84;73.67;99928.94;4928674;28;103974;-68
2024/01/12 05:09:37;;;;;;;43.53;22.85;;;;;;;-6.81;73.69;99930.59;4928650;28;103322;-70
2024/01/12 05:12:08;;;;;;;43.95;23.20;;;;;;;-6.75;73.28;99945.09;4926591;28;103896;-62
2024/01/12 05:14:36;;;;;;;44.80;21.40;;;;;;;-6.79;72.38;99933.97;4930469;27;102690;-62
2024/01/12 05:17:04;;;;;;;38.85;20.92;;;;;;;-6.87;71.42;99930.69;4925086;28;104562;-63
2024/01/12 05:19:32;;;;;;;39.20;20.27;;;;;;;-6.90;71.74;99946.22;4924971;28;103238;-62
2024/01/12 05:22:00;;;;;;;44.85;24.70;;;;;;;-7.04;71.93;99943.88;4932922;27;103030;-68
2024/01/12 05:24:28;;;;;;;48.95;25.02;;;;;;;-6.98;73.20;99948.06;4929080;27;102795;-68
2024/01/12 05:26:56;;;;;;;45.75;22.10;;;;;;;-6.99;73.26;99942.06;4929872;28;104490;-68
2024/01/12 05:29:25;;;;;;;38.00;18.48;;;;;;;-6.90;73.13;99941.91;4925277;28;103330;-68
2024/01/12 05:31:53;;;;;;;43.17;20.50;;;;;;;-6.81;73.28;99929.72;4931048;28;102569;-68
2024/01/12 05:34:22;;;;;;;44.85;22.35;;;;;;;-6.84;71.89;99928.94;4928865;28;103966;-68
2024/01/12 05:36:50;;;;;;;40.72;22.20;;;;;;;-6.92;71.99;99928.19;4925354;28;104088;-68
2024/01/12 05:39:18;;;;;;;47.72;22.02;;;;;;;-7.09;72.08;99936.22;4932720;28;103340;-62
2024/01/12 05:45:16;;;;;;;48.30;22.35;;;;;;;-6.96;72.25;99921.41;4920938;28;104276;-62
2024/01/12 05:47:44;;;;;;;39.78;21.52;;;;;;;-6.97;71.97;99919.69;4938673;27;103237;-68
2024/01/12 05:50:13;;;;;;;49.53;23.08;;;;;;;-7.17;72.04;99925.22;4930168;28;103227;-62
2024/01/12 05:52:41;;;;;;;44.13;24.30;;;;;;;-7.34;73.44;99922.91;4924074;28;102667;-62
2024/01/12 05:55:11;;;;;;;48.38;24.45;;;;;;;-7.45;74.24;99928.25;4931860;28;102816;-63
2024/01/12 05:57:39;;;;;;;44.25;24.90;;;;;;;-7.47;75.14;99929.16;4922962;28;104369;-63
2024/01/12 06:00:09;;;;;;;43.22;22.20;;;;;;;-7.32;75.19;99928.91;4932344;28;103293;-68
2024/01/12 06:02:38;;;;;;;43.83;23.30;;;;;;;-7.20;75.08;99927.84;4928603;28;102688;-67
2024/01/12 06:05:07;;;;;;;52.97;24.73;;;;;;;-7.21;73.99;99921.00;4922712;27;102923;-68
2024/01/12 06:07:35;;;;;;;38.45;21.65;;;;;;;-7.14;74.55;99921.72;4920704;28;104112;-68
2024/01/12 06:10:04;;;;;;;46.40;22.27;;;;;;;-7.10;74.16;99921.66;4928167;28;104298;-66
2024/01/12 06:12:32;;;;;;;43.70;22.45;;;;;;;-7.01;73.79;99918.06;4928453;28;102679;-68
2024/01/12 06:15:03;;;;;;;41.78;22.92;;;;;;;-7.04;72.57;99907.81;4933249;28;103105;-68
2024/01/12 06:17:32;;;;;;;49.17;23.27;;;;;;;-7.08;72.91;99919.06;4926894;28;103284;-69
2024/01/12 06:20:01;;;;;;;47.83;24.02;;;;;;;-7.21;73.17;99921.00;4932223;28;103233;-68
2024/01/12 06:22:29;;;;;;;41.95;21.48;;;;;;;-7.54;75.04;99929.22;4931882;28;102778;-68
2024/01/12 06:24:57;;;;;;;43.17;22.90;;;;;;;-7.43;75.41;99926.47;4928071;28;104235;-62
2024/01/12 06:27:25;;;;;;;48.88;21.77;;;;;;;-7.26;75.41;99923.63;4917374;28;104080;-62
2024/01/12 06:29:53;;;;;;;43.55;21.35;;;;;;;-7.12;75.51;99922.56;4929510;28;104600;-62
2024/01/12 06:32:22;;;;;;;36.78;24.50;;;;;;;-7.00;74.31;99920.59;4928045;28;102660;-62
2024/01/12 06:34:50;;;;;;;29.98;16.85;;;;;;;-6.96;73.82;99911.09;4924049;28;104066;-62
2024/01/12 06:37:19;;;;;;;40.33;20.83;;;;;;;-6.98;73.00;99912.88;4921424;28;104109;-63
2024/01/12 06:39:49;;;;;;;46.17;23.67;;;;;;;-6.99;72.69;99906.03;4926147;28;104556;-62
2024/01/12 06:42:20;;;;;;;44.87;22.30;;;;;;;-7.01;72.43;99905.19;4932442;28;102917;-68
2024/01/12 06:44:48;;;;;;;47.50;22.55;;;;;;;-7.00;72.89;99899.16;4933454;28;104400;-68
2024/01/12 06:47:16;;;;;;;49.42;23.48;;;;;;;-7.03;72.54;99909.53;4929047;28;103403;-62
2024/01/12 06:49:45;;;;;;;45.60;23.92;;;;;;;-7.12;73.20;99909.69;4911969;27;104248;-62
2024/01/12 06:52:13;;;;;;;42.53;21.13;;;;;;;-7.08;73.15;99901.88;4923572;28;102966;-62
2024/01/12 06:54:44;;;;;;;39.75;19.58;;;;;;;-7.00;73.33;99904.31;4924731;28;104214;-63
2024/01/12 06:57:12;;;;;;;42.05;20.98;;;;;;;-6.94;73.16;99901.63;4927711;28;104015;-62
2024/01/12 06:59:40;;;;;;;44.05;22.58;;;;;;;-6.91;73.12;99905.88;4925428;28;103280;-62
2024/01/12 07:02:09;;;;;;;50.58;25.27;;;;;;;-6.98;72.57;99907.72;4928919;28;102676;-68
2024/01/12 07:04:39;;;;;;;48.53;25.88;;;;;;;-7.18;73.34;99919.22;4928123;28;102875;-63
2024/01/12 07:07:09;;;;;;;49.25;27.10;;;;;;;-7.31;74.40;99925.44;4923730;28;103656;-62
2024/01/12 07:09:37;;;;;;;47.00;24.70;;;;;;;-7.21;74.62;99921.00;4933765;28;103386;-62
2024/01/12 07:12:07;;;;;;;47.15;22.08;;;;;;;-7.08;75.14;99919.06;4928540;27;103186;-62
2024/01/12 07:14:36;;;;;;;43.60;23.75;;;;;;;-7.00;74.50;99914.63;4924930;28;102748;-63
2024/01/12 07:17:04;;;;;;;43.40;23.13;;;;;;;-7.06;73.83;99917.28;4928543;28;103418;-68
2024/01/12 07:19:32;;;;;;;49.03;22.48;;;;;;;-7.03;73.58;99912.09;4925121;28;103179;-68
2024/01/12 07:22:00;;;;;;;42.50;23.35;;;;;;;-7.09;72.52;99922.50;4932873;28;102961;-67
2024/01/12 07:24:28;;;;;;;46.88;23.25;;;;;;;-7.01;73.39;99918.94;4927501;27;103998;-69
2024/01/12 07:26:57;;;;;;;38.22;22.58;;;;;;;-6.97;73.11;99914.53;4929951;28;103373;-69
2024/01/12 07:29:26;;;;;;;55.97;24.45;;;;;;;-7.10;73.29;99923.38;4926794;28;103214;-68
2024/01/12 07:31:55;;;;;;;48.78;26.40;;;;;;;-7.14;74.07;99932.03;4915299;27;103235;-69
2024/01/12 07:34:23;;;;;;;41.75;21.95;;;;;;;-7.11;74.14;99931.97;4922533;27;102707;-69
2024/01/12 07:36:53;;;;;;;47.40;23.20;;;;;;;-6.99;74.48;99936.94;4926126;28;103986;-69
2024/01/12 07:39:21;;;;;;;58.67;25.33;;;;;;;-7.04;73.47;99928.44;4927698;28;105076;-69
2024/01/12 07:41:49;;;;;;;44.83;22.50;;;;;;;-7.04;73.88;99933.56;4930139;28;102729;-69
2024/01/12 07:44:17;;;;;;;50.08;23.88;;;;;;;-7.04;74.50;99928.44;4943770;27;104085;-69
2024/01/12 07:46:47;;;;;;;45.20;22.95;;;;;;;-7.05;74.82;99937.91;4930420;28;104167;-63
2024/01/12 07:49:15;;;;;;;44.90;24.08;;;;;;;-7.10;75.10;99946.56;4940059;28;103202;-69
2024/01/12 07:51:44;;;;;;;37.20;19.70;;;;;;;-6.91;75.25;99945.34;4932835;28;102628;-68
2024/01/12 07:54:12;;;;;;;48.10;25.00;;;;;;;-6.95;75.27;99959.16;4927833;27;104283;-69
2024/01/12 07:56:40;;;;;;;52.17;25.38;;;;;;;-6.92;75.92;99953.97;4935298;28;104193;-69
2024/01/12 07:59:09;;;;;;;46.97;26.65;;;;;;;-6.95;75.44;99963.47;4924253;28;103211;-64
2024/01/12 08:01:40;;;;;;;55.63;27.38;;;;;;;-6.93;75.77;99962.59;4925943;28;102680;-63
2024/01/12 08:04:10;;;;;;;51.40;26.65;;;;;;;-6.74;75.55;99955.34;4925933;28;103632;-63
2024/01/12 08:06:38;;;;;;;59.15;28.77;;;;;;;-6.59;75.68;99959.41;4926267;28;103263;-62
2024/01/12 08:09:06;;;;;;;65.82;27.75;;;;;;;-6.44;75.71;99957.41;4919267;28;103276;-63
2024/01/12 08:11:34;;;;;;;56.95;28.52;;;;;;;-6.34;75.24;99964.06;4924875;28;102675;-63
2024/01/12 08:14:08;;;;;;;69.80;33.05;;;;;;;-6.27;75.63;99957.06;4932995;28;103015;-63
2024/01/12 08:16:36;;;;;;;69.00;36.28;;;;;;;-6.10;75.13;99959.31;4914592;27;104179;-62
2024/01/12 08:19:04;;;;;;;63.70;31.08;;;;;;;-6.07;75.39;99967.81;4935263;28;103215;-63
2024/01/12 08:21:34;;;;;;;65.28;34.33;;;;;;;-6.08;75.19;99970.41;4929891;28;103256;-68
2024/01/12 08:24:16;;;;;;;56.03;29.55;;;;;;;-6.07;75.51;99977.28;4927071;28;102943;-68
2024/01/12 08:26:45;;;;;;;61.85;30.45;;;;;;;-5.99;75.60;99980.53;4922348;28;104572;-68
2024/01/12 08:29:14;;;;;;;59.17;27.52;;;;;;;-6.07;75.55;99983.28;4923255;28;104412;-68
2024/01/12 08:31:41;;;;;;;64.47;29.67;;;;;;;-6.02;75.79;99988.34;4922816;28;103148;-68
2024/01/12 08:34:10;;;;;;;57.90;28.27;;;;;;;-6.26;76.20;99994.84;4935936;28;102803;-63
2024/01/12 08:36:40;;;;;;;52.78;24.88;;;;;;;-6.19;77.01;99997.28;4929312;28;104108;-69
2024/01/12 08:39:08;;;;;;;54.00;28.73;;;;;;;-6.30;77.23;99998.38;4907564;27;104103;-68
2024/01/12 08:41:36;;;;;;;52.17;29.00;;;;;;;-6.39;76.85;100005.41;4930614;28;103152;-69
2024/01/12 08:44:05;;;;;;;58.67;29.85;;;;;;;-6.19;76.83;100004.19;4926916;28;103999;-63
2024/01/12 08:46:33;;;;;;;55.80;29.67;;;;;;;-5.93;76.95;99998.44;4932503;28;104140;-68
2024/01/12 08:49:02;;;;;;;51.35;29.42;;;;;;;-5.75;76.60;100004.09;4915033;28;104003;-69
2024/01/12 08:51:31;;;;;;;58.55;32.42;;;;;;;-5.75;76.32;100011.84;4926492;28;102661;-69
2024/01/12 08:54:00;;;;;;;56.95;31.00;;;;;;;-5.68;75.72;100016.00;4926745;27;102731;-66
2024/01/12 08:56:29;;;;;;;56.28;29.98;;;;;;;-5.67;75.38;100013.38;4928999;28;103326;-67
2024/01/12 08:58:57;;;;;;;53.60;28.52;;;;;;;-5.23;75.53;100009.81;4918808;27;103193;-69
2024/01/12 09:01:25;;;;;;;58.72;30.55;;;;;;;-5.26;74.23;100005.56;4955516;27;103364;-66
2024/01/12 09:03:56;;;;;;;56.65;29.17;;;;;;;-5.08;74.21;100013.75;4933505;28;103178;-64
2024/01/12 09:06:27;;;;;;;55.47;29.38;;;;;;;-4.98;72.82;100015.25;4927665;28;102719;-67
2024/01/12 09:09:05;;;;;;;58.10;31.42;;;;;;;-4.88;72.83;100013.31;4928422;28;103221;-66
2024/01/12 09:11:36;;;;;;;47.95;26.25;;;;;;;-4.47;73.43;100005.38;4926114;27;102769;-64
2024/01/12 09:14:05;;;;;;;63.42;30.90;;;;;;;-4.13;71.88;100009.63;4953491;27;104194;-69
2024/01/12 09:16:38;;;;;;;53.10;28.48;;;;;;;-3.96;70.35;100007.41;4932667;28;104257;-68
2024/01/12 09:19:07;;;;;;;55.53;29.83;;;;;;;-4.24;70.79;100008.19;4927408;28;103382;-68
2024/01/12 09:21:36;;;;;;;58.72;31.60;;;;;;;-4.09;70.67;100006.06;4922344;27;102811;-69
2024/01/12 09:24:11;;;;;;;59.15;30.75;;;;;;;-3.75;70.75;100012.84;4926381;28;103869;-64
2024/01/12 09:26:40;;;;;;;50.30;27.75;;;;;;;-3.60;70.13;100009.81;4926084;28;103222;-62
2024/01/12 09:29:09;;;;;;;57.88;30.58;;;;;;;-3.36;68.98;100007.34;4928323;28;103331;-68
2024/01/12 09:31:47;;;;;;;55.30;29.15;;;;;;;-3.13;69.06;100016.16;4928257;28;102749;-69
2024/01/12 09:34:15;;;;;;;55.05;28.20;;;;;;;-2.93;67.97;100012.94;4923420;28;102922;-67
2024/01/12 09:36:44;;;;;;;55.70;29.23;;;;;;;-2.84;67.76;100021.25;4933279;28;104043;-69
2024/01/12 09:39:17;;;;;;;52.53;26.02;;;;;;;-2.73;67.43;100017.44;4931271;28;103345;-63
2024/01/12 09:41:49;;;;;;;58.55;32.28;;;;;;;-2.81;66.06;100007.31;4925547;28;102763;-68
2024/01/12 09:44:20;;;;;;;56.17;29.83;;;;;;;-2.98;67.21;100023.44;4935531;27;102829;-64
2024/01/12 09:46:56;;;;;;;54.97;29.40;;;;;;;-3.27;67.30;100017.44;4941552;28;104074;-69
2024/01/12 09:49:25;;;;;;;61.83;32.88;;;;;;;-3.05;67.69;100011.59;4930281;28;102985;-69
2024/01/12 09:51:53;;;;;;;53.78;29.73;;;;;;;-2.94;67.36;100009.47;4931610;28;102805;-64
2024/01/12 09:54:23;;;;;;;57.90;32.53;;;;;;;-2.92;66.45;100012.00;4929816;28;102768;-64
2024/01/12 09:56:53;;;;;;;52.33;29.45;;;;;;;-2.96;68.17;100016.47;4931263;28;103243;-64
2024/01/12 09:59:24;;;;;;;60.65;31.52;;;;;;;-2.65;67.40;100015.44;4925495;28;103373;-70
2024/01/12 10:01:53;;;;;;;50.17;29.42;;;;;;;-2.65;67.08;100010.25;4924077;28;102598;-70
2024/01/12 10:04:21;;;;;;;51.20;29.30;;;;;;;-2.39;66.69;100011.09;4929490;28;102776;-64
2024/01/12 10:06:51;;;;;;;46.20;26.52;;;;;;;-2.90;67.81;100008.47;4931529;28;104122;-64
2024/01/12 10:09:24;;;;;;;53.40;36.35;;;;;;;-2.90;67.69;100005.88;4934678;27;103195;-68
2024/01/12 10:11:55;;;;;;;46.42;25.80;;;;;;;-3.15;69.01;99999.81;4932487;28;102691;-70
2024/01/12 10:14:25;;;;;;;47.40;28.52;;;;;;;-3.10;69.46;100003.09;4935366;28;104210;-64
2024/01/12 10:16:54;;;;;;;52.60;29.10;;;;;;;-2.75;69.22;99991.56;4930501;28;105052;-65
2024/01/12 10:19:22;;;;;;;51.00;33.95;;;;;;;-2.73;68.67;99981.13;4937891;28;103111;-70
2024/01/12 10:21:55;;;;;;;52.13;29.58;;;;;;;-2.73;68.18;99981.97;4933270;28;102616;-64
2024/01/12 10:24:23;;;;;;;50.05;26.52;;;;;;;-2.37;67.84;99983.34;4932439;27;102738;-65
2024/01/12 10:26:52;;;;;;;47.85;27.58;;;;;;;-2.36;68.14;99990.22;4932313;28;103888;-65
2024/01/12 10:29:24;;;;;;;53.25;36.13;;;;;;;-2.51;67.45;99999.41;4925899;27;102903;-64
2024/01/12 10:31:55;;;;;;;53.25;35.97;;;;;;;-2.45;67.58;99995.75;4943307;27;102736;-70
2024/01/12 10:34:33;;;;;;;50.35;28.95;;;;;;;-2.67;67.57;99988.72;4930571;27;102844;-70
2024/01/12 10:37:04;;;;;;;62.17;36.58;;;;;;;-2.65;69.33;99991.25;4936723;28;102580;-64
2024/01/12 10:39:36;;;;;;;47.07;26.57;;;;;;;-2.45;67.99;99980.19;4930560;28;104079;-66
2024/01/12 10:42:07;;;;;;;47.00;31.00;;;;;;;-2.15;68.35;99980.00;4941166;27;103084;-64
2024/01/12 10:44:40;;;;;;;48.58;35.10;;;;;;;-2.19;67.60;99987.03;4930957;28;103773;-64
2024/01/12 10:47:15;;;;;;;43.97;27.15;;;;;;;-1.93;67.70;99991.25;4944273;28;103097;-63
2024/01/12 10:49:49;;;;;;;50.67;34.50;;;;;;;-1.95;65.40;99977.50;4960638;27;103775;-66
2024/01/12 10:52:40;;;;;;;40.05;28.20;;;;;;;-1.86;65.89;99966.78;4941242;27;102997;-68
2024/01/12 10:55:16;;;;;;;44.42;26.88;;;;;;;-2.17;66.84;99975.69;4942166;28;102688;-69
2024/01/12 10:57:49;;;;;;;49.42;33.83;;;;;;;-2.26;66.74;99970.84;4932922;28;103952;-64
2024/01/12 11:00:20;;;;;;;50.47;33.45;;;;;;;-2.31;67.69;99967.56;4936682;28;103300;-69
2024/01/12 11:02:50;;;;;;;48.97;34.20;;;;;;;-2.63;68.45;99976.47;4928434;28;102704;-70
2024/01/12 11:05:20;;;;;;;52.30;34.85;;;;;;;-1.95;67.44;99972.31;4927809;28;104498;-64
2024/01/12 11:07:50;;;;;;;48.83;33.30;;;;;;;-1.76;67.06;99959.47;4936121;28;104002;-64
2024/01/12 11:10:19;;;;;;;52.15;35.60;;;;;;;-2.21;66.55;99965.50;4929705;28;103238;-64
2024/01/12 11:12:48;;;;;;;49.58;34.35;;;;;;;-2.36;67.37;99964.28;4929048;27;102958;-65
2024/01/12 11:15:21;;;;;;;48.13;32.50;;;;;;;-2.00;67.83;99974.25;4919862;27;102926;-65
2024/01/12 11:17:51;;;;;;;52.80;35.92;;;;;;;-1.83;66.63;99978.81;4932738;27;103691;-65
2024/01/12 11:20:21;;;;;;;45.00;32.50;;;;;;;-1.55;65.41;99968.19;4929637;28;103296;-69
2024/01/12 11:22:53;;;;;;;48.85;28.52;;;;;;;-1.29;65.63;99955.91;4934344;27;102724;-70